Time;durP1;ratioP1;P1;durP2;ratioP2;P2;SDS_P1;SDS_P2;PMS_P1;PMS_P2;Temp;Humidity;BMP_temperature;BMP_pressure;BME280_temperature;BME280_humidity;BME280_pressure;Samples;Min_cycle;Max_cycle;Signal;HPM_P1;HPM_P2
2022/10/15 00:01:47;;;;;;;14.05;11.85;;;14.40;99.90;;;-141.84;84.54;18830.31;5115167;28;20203;-61
2022/10/15 00:04:16;;;;;;;12.48;11.07;;;14.40;99.90;;;-141.84;84.93;18824.22;5113863;28;20589;-60
2022/10/15 00:06:44;;;;;;;12.38;11.13;;;14.40;99.90;;;-141.84;83.43;18862.81;5113455;28;20288;-61
2022/10/15 00:09:12;;;;;;;13.70;10.73;;;14.50;99.90;;;-141.84;84.16;18917.66;5114464;28;20240;-61
2022/10/15 00:11:40;;;;;;;10.93;9.82;;;14.40;99.90;;;-141.84;83.04;18844.53;5112048;28;20231;-59
2022/10/15 00:14:08;;;;;;;12.48;11.18;;;14.50;99.90;;;-141.84;82.94;18903.44;5114181;28;20204;-60
2022/10/15 00:16:37;;;;;;;11.80;10.45;;;14.50;99.90;;;-141.84;83.81;18846.56;5114398;28;20200;-59
2022/10/15 00:19:05;;;;;;;12.35;11.05;;;14.50;99.90;;;-141.84;84.33;18818.09;5113641;28;20215;-60
2022/10/15 00:21:33;;;;;;;11.55;10.27;;;14.50;99.90;;;-141.84;83.99;18860.78;5113367;27;20277;-60
2022/10/15 00:24:01;;;;;;;12.15;9.63;;;14.50;99.90;;;-141.84;82.36;18864.84;5113771;28;20650;-60
2022/10/15 00:26:30;;;;;;;11.82;10.10;;;14.60;99.90;;;-141.84;82.84;18846.56;5114260;28;20598;-60
2022/10/15 00:29:01;;;;;;;11.45;10.25;;;14.60;99.90;;;-141.84;83.12;18854.69;5114011;28;20242;-61
2022/10/15 00:31:32;;;;;;;11.32;9.75;;;14.60;99.90;;;-141.84;84.09;18838.44;5114585;28;20631;-60
2022/10/15 00:34:02;;;;;;;11.45;10.02;;;14.50;99.90;;;-141.84;84.43;18818.09;5113806;28;20276;-60
2022/10/15 00:36:33;;;;;;;11.43;9.80;;;14.50;99.90;;;-141.84;83.69;18822.19;5113878;28;20644;-62
2022/10/15 00:39:03;;;;;;;10.57;9.05;;;14.50;99.90;;;-141.84;84.47;18797.78;5113938;28;20221;-62
2022/10/15 00:41:35;;;;;;;10.77;9.68;;;14.50;99.90;;;-141.84;84.88;18842.50;5114064;28;20596;-59
2022/10/15 00:44:41;;;;;;;11.02;9.88;;;14.40;99.90;;;-141.84;83.63;18832.34;5113751;28;20227;-62
2022/10/15 00:47:18;;;;;;;9.75;8.65;;;14.50;99.90;;;-141.84;82.25;18838.44;5113685;27;20203;-60
2022/10/15 00:49:56;;;;;;;10.60;9.23;;;14.60;99.90;;;-141.84;82.76;18862.81;5114024;28;20179;-62
2022/10/15 00:52:32;;;;;;;10.18;9.07;;;14.60;99.90;;;-141.84;83.34;18826.25;5114206;28;20207;-61
2022/10/15 00:55:08;;;;;;;9.70;8.70;;;14.50;99.90;;;-141.84;82.87;18814.03;5113407;28;20223;-60
2022/10/15 00:57:36;;;;;;;8.50;7.70;;;14.60;99.90;;;-141.84;83.97;18783.56;5113731;28;20223;-61
2022/10/15 01:00:10;;;;;;;10.40;8.75;;;14.50;99.90;;;-141.84;83.43;18785.59;5113369;28;20856;-59
2022/10/15 01:02:38;;;;;;;8.85;7.93;;;14.50;99.90;;;-141.84;83.36;18822.19;5113567;28;20242;-59
2022/10/15 01:05:09;;;;;;;8.90;8.02;;;14.60;99.90;;;-141.84;83.22;18805.91;5112754;28;20545;-60
2022/10/15 01:07:37;;;;;;;8.32;7.55;;;14.60;99.90;;;-141.84;83.82;18785.59;5114104;28;20629;-61
2022/10/15 01:10:09;;;;;;;8.60;7.40;;;14.60;99.90;;;-141.84;83.54;18803.88;5113185;28;20612;-61
2022/10/15 01:13:01;;;;;;;8.00;6.90;;;14.60;99.90;;;-141.84;84.01;18805.91;5113443;28;20231;-60
2022/10/15 01:15:43;;;;;;;7.72;6.53;;;14.50;99.90;;;-141.84;83.80;18797.78;5113081;28;20246;-59
2022/10/15 01:18:20;;;;;;;6.20;5.60;;;14.60;99.90;;;-141.84;82.12;18793.72;5113226;28;20423;-59
2022/10/15 01:21:08;;;;;;;6.43;5.18;;;14.70;99.90;;;-141.84;82.81;18807.94;5112889;27;20227;-60
2022/10/15 01:24:27;;;;;;;6.43;5.80;;;14.70;99.90;;;-141.84;83.93;18789.66;5112950;28;20226;-60
2022/10/15 01:27:20;;;;;;;6.28;5.50;;;14.70;99.90;;;-141.84;85.26;18769.34;5113202;28;20234;-59
2022/10/15 01:30:18;;;;;;;6.20;5.57;;;14.70;99.90;;;-141.84;85.65;18763.25;5112861;28;20227;-60
2022/10/15 01:33:00;;;;;;;6.03;5.43;;;14.60;99.90;;;-141.84;86.50;18767.31;5112925;27;20668;-60
2022/10/15 01:35:43;;;;;;;6.35;5.70;;;14.50;99.90;;;-141.84;87.08;18730.75;5112657;28;20272;-59
2022/10/15 01:38:30;;;;;;;6.38;5.75;;;14.50;99.90;;;-141.84;87.71;18751.06;5113115;28;20195;-60
2022/10/15 01:41:08;;;;;;;7.30;6.60;;;14.40;99.90;;;-141.84;87.97;18718.56;5113058;27;20187;-58
2022/10/15 01:43:45;;;;;;;7.50;6.68;;;14.40;99.90;;;-141.84;88.06;18696.19;5113389;28;20263;-60
2022/10/15 01:46:21;;;;;;;7.28;6.60;;;14.40;99.90;;;-141.84;87.79;18720.59;5112927;28;20280;-60
2022/10/15 01:48:54;;;;;;;9.27;7.40;;;14.40;99.90;;;-141.84;87.05;18751.06;5112401;28;20223;-59
2022/10/15 01:51:25;;;;;;;7.43;6.72;;;14.50;99.90;;;-141.84;85.82;18740.91;5112325;28;20223;-61
2022/10/15 01:53:54;;;;;;;8.23;7.43;;;14.50;99.90;;;-141.84;86.39;18755.13;5112476;28;20226;-60
2022/10/15 01:56:26;;;;;;;8.90;7.30;;;14.50;99.90;;;-141.84;85.95;18749.03;5112523;28;20598;-62
2022/10/15 01:58:58;;;;;;;8.73;7.45;;;14.50;99.90;;;-141.84;85.48;18791.69;5112002;27;20561;-61
2022/10/15 02:01:27;;;;;;;7.22;6.53;;;14.50;99.90;;;-141.84;85.19;18712.47;5113019;28;20198;-59
2022/10/15 02:03:55;;;;;;;10.00;7.70;;;14.50;99.90;;;-141.84;86.01;18712.47;5111925;28;20268;-60
2022/10/15 02:06:31;;;;;;;7.32;6.63;;;14.60;99.90;;;-141.84;85.95;18714.50;5111996;28;20613;-61
2022/10/15 02:09:16;;;;;;;8.15;7.28;;;14.50;99.90;;;-141.84;86.66;18679.94;5112264;27;20645;-60
2022/10/15 02:12:00;;;;;;;7.45;6.75;;;14.50;99.90;;;-141.84;87.26;18688.06;5112375;28;20219;-59
2022/10/15 02:14:37;;;;;;;8.25;7.30;;;14.50;99.90;;;-141.84;86.89;18726.69;5112269;28;20267;-60
2022/10/15 02:17:10;;;;;;;7.43;6.72;;;14.50;99.90;;;-141.84;85.31;18726.69;5111464;28;20199;-60
2022/10/15 02:19:48;;;;;;;9.35;7.70;;;14.60;99.90;;;-141.84;85.85;18690.09;5112584;28;20211;-61
2022/10/15 02:22:24;;;;;;;9.55;7.78;;;14.50;99.90;;;-141.84;84.67;18730.75;5111965;28;20223;-60
2022/10/15 02:25:01;;;;;;;8.27;7.47;;;14.60;99.90;;;-141.84;85.42;18728.72;5110245;28;20231;-60
2022/10/15 02:27:32;;;;;;;8.55;7.30;;;14.60;99.90;;;-141.84;84.20;18734.81;5111827;28;20641;-59
2022/10/15 02:30:04;;;;;;;7.63;6.93;;;14.60;99.90;;;-141.84;84.36;18708.41;5111972;28;20235;-59
2022/10/15 02:32:38;;;;;;;8.25;7.45;;;14.60;99.90;;;-141.84;84.29;18690.09;5111986;28;20220;-59
2022/10/15 02:35:09;;;;;;;8.30;7.43;;;14.60;99.90;;;-141.84;83.91;18708.41;5111607;28;20180;-60
2022/10/15 02:37:47;;;;;;;7.43;6.72;;;14.60;99.90;;;-141.84;83.56;18700.25;5112145;28;20192;-60
2022/10/15 02:40:16;;;;;;;7.63;6.93;;;14.60;99.90;;;-141.84;84.52;18724.66;5111093;28;20657;-60
2022/10/15 02:42:44;;;;;;;7.45;6.65;;;14.60;99.90;;;-141.84;84.53;18706.38;5111692;28;20223;-59
2022/10/15 02:45:12;;;;;;;6.63;5.93;;;14.60;99.90;;;-141.84;85.38;18749.03;5111459;27;20239;-59
2022/10/15 02:47:41;;;;;;;7.05;5.97;;;14.50;99.90;;;-141.84;86.01;18708.41;5106381;28;20717;-60
2022/10/15 02:50:10;;;;;;;7.57;6.57;;;14.50;99.90;;;-141.84;84.13;18710.44;5111175;28;20554;-60
2022/10/15 02:52:38;;;;;;;7.18;6.47;;;14.60;99.90;;;-141.84;84.51;18742.94;5111868;28;20195;-61
2022/10/15 02:55:07;;;;;;;8.68;7.32;;;14.60;99.90;;;-141.84;85.33;18692.13;5111264;28;20226;-59
2022/10/15 02:57:35;;;;;;;7.20;6.35;;;14.50;99.90;;;-141.84;85.95;18663.69;5111261;28;20231;-60
2022/10/15 03:00:05;;;;;;;7.95;6.72;;;14.50;99.90;;;-141.84;86.04;18655.56;5111486;28;20263;-60
2022/10/15 03:02:33;;;;;;;6.35;5.75;;;14.50;99.90;;;-141.84;86.35;18698.22;5111531;28;20233;-60
2022/10/15 03:05:03;;;;;;;7.88;5.90;;;14.40;99.90;;;-141.84;86.62;18720.59;5111032;28;20219;-60
2022/10/15 03:07:31;;;;;;;7.05;6.32;;;14.40;99.90;;;-141.84;86.58;18637.28;5111849;28;20195;-60
2022/10/15 03:09:59;;;;;;;6.93;6.32;;;14.40;99.90;;;-141.84;86.69;18698.22;5111066;28;20246;-60
2022/10/15 03:12:27;;;;;;;7.15;5.70;;;14.40;99.90;;;-141.84;86.11;18655.56;5110995;28;20617;-60
2022/10/15 03:14:55;;;;;;;7.00;6.30;;;14.40;99.90;;;-141.84;86.19;18631.19;5111162;28;20227;-59
2022/10/15 03:17:23;;;;;;;6.65;6.05;;;14.40;99.90;;;-141.84;86.12;18671.81;5110791;28;20741;-61
2022/10/15 03:19:51;;;;;;;7.38;6.68;;;14.40;99.90;;;-141.84;86.18;18651.50;5111319;28;20203;-60
2022/10/15 03:22:21;;;;;;;7.68;5.57;;;14.40;99.90;;;-141.84;84.63;18698.22;5103144;28;20224;-60
2022/10/15 03:24:49;;;;;;;5.78;5.22;;;14.40;99.90;;;-141.84;84.60;18653.53;5110475;28;20223;-60
2022/10/15 03:27:17;;;;;;;6.18;5.43;;;14.40;99.90;;;-141.84;85.17;18631.19;5111964;28;20238;-60
2022/10/15 03:29:45;;;;;;;6.03;5.43;;;14.40;99.90;;;-141.84;85.45;18665.72;5115300;28;20733;-59
2022/10/15 03:32:13;;;;;;;5.80;5.30;;;14.40;99.90;;;-141.84;84.92;18651.50;5115355;28;20231;-59
2022/10/15 03:34:41;;;;;;;6.18;5.47;;;14.40;99.90;;;-141.84;85.40;18631.19;5115630;28;20199;-60
2022/10/15 03:37:09;;;;;;;6.03;5.43;;;14.40;99.90;;;-141.84;85.66;18637.28;5114887;28;20749;-60
2022/10/15 03:39:38;;;;;;;5.80;5.25;;;14.30;99.90;;;-141.84;85.98;18647.44;5115180;28;20226;-59
2022/10/15 03:42:06;;;;;;;5.60;5.05;;;14.30;99.90;;;-141.84;86.41;18616.97;5115117;27;20223;-59
2022/10/15 03:44:34;;;;;;;5.60;5.10;;;14.30;99.90;;;-141.84;85.04;18645.41;5115350;28;20230;-59
2022/10/15 03:47:02;;;;;;;6.25;5.00;;;14.40;99.90;;;-141.84;85.02;18631.19;5115046;28;20203;-59
2022/10/15 03:49:30;;;;;;;5.35;4.90;;;14.40;99.90;;;-141.84;85.54;18639.31;5115323;28;20195;-60
2022/10/15 03:51:58;;;;;;;5.35;4.90;;;14.40;99.90;;;-141.84;85.72;18625.09;5114793;27;20223;-60
2022/10/15 03:54:26;;;;;;;6.68;4.78;;;14.40;99.90;;;-141.84;85.90;18659.63;5114762;28;20254;-60
2022/10/15 03:56:55;;;;;;;5.30;4.80;;;14.40;99.90;;;-141.84;86.48;18604.78;5114992;28;20223;-60
2022/10/15 03:59:23;;;;;;;5.50;5.00;;;14.20;99.90;;;-141.84;86.53;18576.31;5114726;28;20223;-60
2022/10/15 04:01:51;;;;;;;5.38;4.88;;;14.30;99.90;;;-141.84;86.51;18614.94;5115009;28;20215;-59
2022/10/15 04:04:19;;;;;;;4.97;4.57;;;14.30;99.90;;;-141.84;86.16;18614.94;5114285;28;20285;-60
2022/10/15 04:06:47;;;;;;;5.18;4.68;;;14.30;99.90;;;-141.84;85.84;18627.13;5114394;28;20730;-59
2022/10/15 04:09:15;;;;;;;5.53;4.70;;;14.30;99.90;;;-141.84;85.95;18590.56;5114481;28;20308;-60
2022/10/15 04:11:43;;;;;;;4.80;4.35;;;14.30;99.90;;;-141.84;86.02;18633.22;5114766;28;20223;-62
2022/10/15 04:14:13;;;;;;;4.60;4.20;;;14.30;99.90;;;-141.84;85.99;18596.66;5114667;28;20203;-59
2022/10/15 04:16:41;;;;;;;4.85;4.35;;;14.30;99.90;;;-141.84;86.32;18590.56;5115024;28;20260;-60
2022/10/15 04:19:09;;;;;;;6.15;4.28;;;14.30;99.90;;;-141.84;86.66;18610.88;5113913;28;20227;-60
2022/10/15 04:21:38;;;;;;;4.20;3.80;;;14.30;99.90;;;-141.84;86.96;18594.63;5114353;28;20227;-60
2022/10/15 04:24:06;;;;;;;4.53;4.13;;;14.20;99.90;;;-141.84;87.13;18545.84;5113903;28;20219;-61
2022/10/15 04:26:34;;;;;;;7.40;4.80;;;14.10;99.90;;;-141.84;87.18;18586.50;5114277;28;20337;-60
2022/10/15 04:29:02;;;;;;;4.88;4.45;;;14.20;99.90;;;-141.84;87.07;18590.56;5114516;28;20209;-60
2022/10/15 04:31:32;;;;;;;4.80;4.32;;;14.10;99.90;;;-141.84;87.17;18566.16;5114371;28;20670;-60
2022/10/15 04:34:00;;;;;;;4.85;4.35;;;14.00;99.90;;;-141.84;87.40;18527.56;5113801;28;20253;-59
2022/10/15 04:36:28;;;;;;;5.82;4.50;;;14.00;99.90;;;-141.84;87.73;18545.84;5113958;28;20783;-59
2022/10/15 04:38:56;;;;;;;5.47;4.28;;;14.00;99.90;;;-141.84;87.47;18511.31;5113191;28;20223;-60
2022/10/15 04:41:24;;;;;;;5.15;4.72;;;14.00;99.90;;;-141.84;86.85;18539.75;5114130;28;20275;-60
2022/10/15 04:43:52;;;;;;;5.70;4.25;;;14.00;99.90;;;-141.84;85.91;18553.97;5114355;28;20207;-59
2022/10/15 04:46:21;;;;;;;5.80;5.20;;;14.00;99.90;;;-141.84;85.63;18574.28;5114039;28;20231;-60
2022/10/15 04:48:51;;;;;;;4.97;4.47;;;14.10;99.90;;;-141.84;86.06;18558.03;5113555;27;20234;-59
2022/10/15 04:51:21;;;;;;;4.45;4.05;;;14.10;99.90;;;-141.84;86.21;18598.69;5113456;28;20276;-59
2022/10/15 04:53:49;;;;;;;4.75;4.00;;;14.10;99.90;;;-141.84;86.89;18564.13;5113537;28;20223;-59
2022/10/15 04:56:20;;;;;;;4.30;3.80;;;14.00;99.90;;;-141.84;87.29;18553.97;5113868;28;20230;-59
2022/10/15 04:58:50;;;;;;;4.22;3.83;;;14.00;99.90;;;-141.84;87.50;18553.97;5114141;28;20201;-60
2022/10/15 05:01:20;;;;;;;5.00;3.75;;;14.10;99.90;;;-141.84;87.72;18525.53;5113475;28;20230;-60
2022/10/15 05:03:50;;;;;;;4.30;3.80;;;14.00;99.90;;;-141.84;87.74;18549.91;5113402;28;20231;-59
2022/10/15 05:06:21;;;;;;;4.57;4.18;;;14.00;99.90;;;-141.84;87.63;18523.50;5113455;28;20288;-60
2022/10/15 05:08:50;;;;;;;4.35;3.95;;;14.00;99.90;;;-141.84;87.58;18509.28;5113329;28;20227;-60
2022/10/15 05:11:21;;;;;;;4.22;3.83;;;14.00;99.90;;;-141.84;87.30;18525.53;5113512;28;20219;-60
2022/10/15 05:13:50;;;;;;;5.32;3.85;;;14.10;99.90;;;-141.84;87.13;18553.97;5113782;28;20542;-59
2022/10/15 05:16:20;;;;;;;4.65;4.20;;;14.10;99.90;;;-141.84;87.21;18537.72;5113592;28;20211;-59
2022/10/15 05:18:53;;;;;;;4.20;3.80;;;14.10;99.90;;;-141.84;86.55;18525.53;5113224;28;20234;-59
2022/10/15 05:21:21;;;;;;;4.88;4.05;;;14.10;99.90;;;-141.84;86.43;18525.53;5112961;28;20797;-59
2022/10/15 05:23:50;;;;;;;4.75;3.97;;;14.10;99.90;;;-141.84;86.40;18539.75;5113331;28;20743;-59
2022/10/15 05:26:20;;;;;;;4.43;3.90;;;14.20;99.90;;;-141.84;86.44;18529.59;5113108;28;20282;-61
2022/10/15 05:28:49;;;;;;;3.80;3.50;;;14.20;99.90;;;-141.84;86.37;18558.03;5113360;28;20191;-60
2022/10/15 05:31:20;;;;;;;4.43;3.80;;;14.20;99.90;;;-141.84;86.24;18549.91;5113135;27;20717;-60
2022/10/15 05:33:52;;;;;;;3.85;3.55;;;14.20;99.90;;;-141.84;86.29;18578.38;5112888;28;20239;-60
2022/10/15 05:36:23;;;;;;;4.75;4.07;;;14.20;99.90;;;-141.84;86.26;18535.69;5112993;27;20219;-60
2022/10/15 05:38:53;;;;;;;5.10;3.60;;;14.20;99.90;;;-141.84;86.16;18560.06;5112840;28;20227;-60
2022/10/15 05:41:22;;;;;;;4.30;3.90;;;14.20;99.90;;;-141.84;86.05;18545.84;5112864;28;20227;-60
2022/10/15 05:43:52;;;;;;;5.43;3.75;;;14.20;99.90;;;-141.84;86.08;18549.91;5113241;28;20200;-59
2022/10/15 05:46:20;;;;;;;3.95;3.60;;;14.30;99.90;;;-141.84;86.08;18590.56;5112937;28;20231;-59
2022/10/15 05:48:49;;;;;;;4.28;3.88;;;14.30;99.90;;;-141.84;85.82;18553.97;5112505;28;20667;-60
2022/10/15 05:51:19;;;;;;;4.35;3.88;;;14.20;99.90;;;-141.84;85.77;18574.28;5111583;28;20234;-77
2022/10/15 05:53:47;;;;;;;4.18;3.70;;;14.20;99.90;;;-141.84;85.69;18553.97;5113664;28;20230;-78
2022/10/15 05:56:16;;;;;;;5.65;3.67;;;14.30;99.90;;;-141.84;85.17;18523.50;5113759;28;20219;-79
2022/10/15 05:58:44;;;;;;;4.13;3.78;;;14.30;99.90;;;-141.84;85.37;18553.97;5114061;28;20689;-78
2022/10/15 06:01:13;;;;;;;4.05;3.63;;;14.30;99.90;;;-141.84;85.38;18547.88;5113517;28;20234;-79
2022/10/15 06:03:43;;;;;;;5.00;3.83;;;14.30;99.90;;;-141.84;85.22;18531.63;5113235;28;20771;-79
2022/10/15 06:06:19;;;;;;;5.43;3.65;;;14.30;99.90;;;-141.84;85.02;18576.31;5113367;28;20230;-77
2022/10/15 06:08:48;;;;;;;3.83;3.53;;;14.40;99.90;;;-141.84;84.97;18588.53;5113582;28;20225;-77
2022/10/15 06:11:17;;;;;;;4.00;3.63;;;14.40;99.90;;;-141.84;84.90;18572.25;5113505;28;20336;-80
2022/10/15 06:13:47;;;;;;;3.65;3.35;;;14.50;99.90;;;-141.84;84.81;18594.63;5113846;28;20196;-78
2022/10/15 06:16:17;;;;;;;3.55;3.25;;;14.50;99.90;;;-141.84;84.74;18594.63;5113058;27;20718;-77
2022/10/15 06:18:52;;;;;;;3.90;3.50;;;14.50;99.90;;;-141.84;84.58;18576.31;5113134;28;20306;-78
2022/10/15 06:21:22;;;;;;;4.40;3.58;;;14.50;99.90;;;-141.84;84.43;18574.28;5112909;28;20227;-79
2022/10/15 06:23:50;;;;;;;4.65;3.60;;;14.50;99.90;;;-141.84;84.05;18572.25;5112778;28;20641;-79
2022/10/15 06:26:18;;;;;;;3.20;2.90;;;14.60;99.90;;;-141.84;83.87;18574.28;5112723;28;20230;-78
2022/10/15 06:28:46;;;;;;;3.40;3.10;;;14.70;99.90;;;-141.84;83.76;18633.22;5113533;28;20252;-76
2022/10/15 06:31:14;;;;;;;3.25;2.80;;;14.70;99.90;;;-141.84;83.54;18635.25;5113193;28;20746;-79
2022/10/15 06:33:42;;;;;;;3.65;2.97;;;14.80;99.90;;;-141.84;83.29;18621.03;5112887;28;20720;-78
2022/10/15 06:36:12;;;;;;;3.67;3.38;;;14.80;99.90;;;-141.84;82.90;18639.31;5112541;28;20261;-78
2022/10/15 06:38:43;;;;;;;4.20;3.75;;;14.80;99.90;;;-141.84;82.46;18641.34;5113256;28;20222;-78
2022/10/15 06:41:11;;;;;;;4.72;3.17;;;14.90;99.90;;;-141.84;81.93;18655.56;5113072;28;20179;-82
2022/10/15 06:43:39;;;;;;;4.30;3.05;;;14.90;99.90;;;-141.84;81.93;18647.44;5113576;28;20207;-79
2022/10/15 06:46:08;;;;;;;3.03;2.72;;;14.90;99.90;;;-141.84;82.00;18704.31;5112682;28;20249;-76
2022/10/15 06:48:36;;;;;;;4.13;2.88;;;15.00;99.90;;;-141.84;81.59;18677.91;5113146;27;20223;-80
2022/10/15 06:51:04;;;;;;;3.47;3.08;;;15.10;99.90;;;-141.84;81.16;18736.84;5112633;28;20276;-77
2022/10/15 06:53:33;;;;;;;3.25;2.95;;;15.20;99.90;;;-141.84;80.56;18736.84;5112316;28;20296;-80
2022/10/15 06:56:04;;;;;;;3.00;2.75;;;15.40;99.90;;;-141.84;80.03;18795.75;5112801;28;20260;-79
2022/10/15 06:58:32;;;;;;;3.40;3.10;;;15.50;99.90;;;-141.84;78.84;18805.91;5113254;28;20188;-80
2022/10/15 07:01:01;;;;;;;3.25;2.95;;;15.60;99.90;;;-141.84;78.21;18832.34;5112301;28;20223;-77
2022/10/15 07:03:29;;;;;;;5.07;3.17;;;15.70;99.90;;;-141.84;77.14;18807.94;5114764;28;20230;-79
2022/10/15 07:06:03;;;;;;;4.55;3.05;;;15.70;99.90;;;-141.84;77.36;18803.88;5115145;28;20219;-78
2022/10/15 07:08:31;;;;;;;2.88;2.67;;;15.70;99.90;;;-141.84;77.29;18814.03;5115277;28;20222;-79
2022/10/15 07:11:03;;;;;;;3.95;2.88;;;15.60;99.90;;;-141.84;76.79;18870.94;5119862;28;20207;-78
2022/10/15 07:13:32;;;;;;;3.45;3.00;;;15.50;99.90;;;-141.84;76.41;18862.81;5114891;28;20194;-78
2022/10/15 07:16:05;;;;;;;5.00;2.90;;;15.50;99.90;;;-141.84;77.25;18820.16;5113192;28;20737;-77
2022/10/15 07:18:33;;;;;;;3.47;3.05;;;15.50;99.90;;;-141.84;77.36;18824.22;5114643;28;20231;-81
2022/10/15 07:21:02;;;;;;;2.90;2.70;;;15.60;99.90;;;-141.84;75.67;18885.16;5114704;28;20210;-83
2022/10/15 07:23:30;;;;;;;3.50;3.20;;;15.60;99.90;;;-141.84;74.73;18915.63;5110622;28;20226;-81
2022/10/15 07:25:58;;;;;;;3.72;3.10;;;15.70;99.90;;;-141.84;75.41;18899.38;5092639;28;20340;-78
2022/10/15 07:28:27;;;;;;;3.28;2.83;;;15.70;99.90;;;-141.84;75.08;18944.09;5092748;28;20219;-81
2022/10/15 07:31:01;;;;;;;3.80;3.03;;;15.70;99.90;;;-141.84;75.98;18915.63;5091960;28;20248;-82
2022/10/15 07:33:30;;;;;;;2.92;2.67;;;15.70;99.90;;;-141.84;75.77;18946.13;5091724;28;20325;-80
2022/10/15 07:35:58;;;;;;;3.08;2.78;;;15.70;99.90;;;-141.84;75.89;18911.56;5091596;28;20243;-81
2022/10/15 07:38:26;;;;;;;3.45;2.70;;;15.70;99.90;;;-141.84;76.16;18933.94;5092200;28;20223;-80
2022/10/15 07:40:58;;;;;;;2.95;2.50;;;15.70;99.90;;;-141.84;76.30;18907.50;5093291;28;20227;-80
2022/10/15 07:43:29;;;;;;;2.80;2.50;;;15.70;99.90;;;-141.84;76.24;18915.63;5092038;28;20249;-78
2022/10/15 07:45:57;;;;;;;2.90;2.60;;;15.70;99.90;;;-141.84;75.92;18970.50;5091734;28;20289;-79
2022/10/15 07:48:25;;;;;;;2.97;2.65;;;15.90;99.90;;;-141.84;74.23;18966.44;5091820;28;20238;-77
2022/10/15 07:50:57;;;;;;;5.18;2.90;;;15.90;99.90;;;-141.84;74.29;19000.97;5091669;28;20220;-79
2022/10/15 07:53:26;;;;;;;2.88;2.67;;;16.00;99.90;;;-141.84;73.43;19025.38;5105810;28;20226;-82
2022/10/15 07:55:53;;;;;;;3.20;2.90;;;16.20;99.90;;;-141.84;72.88;19106.66;5091659;28;20230;-78
2022/10/15 07:58:22;;;;;;;2.97;2.67;;;16.20;99.90;;;-141.84;73.06;19076.16;5092258;28;20207;-79
2022/10/15 08:00:51;;;;;;;3.10;2.78;;;16.30;99.90;;;-141.84;73.31;19074.13;5091694;28;20224;-77
2022/10/15 08:03:19;;;;;;;2.63;2.42;;;16.30;99.90;;;-141.84;73.57;19051.78;5091334;28;20224;-80
2022/10/15 08:05:47;;;;;;;3.00;2.70;;;16.30;99.90;;;-141.84;72.51;19108.69;5092003;28;20224;-78
2022/10/15 08:08:15;;;;;;;3.22;2.83;;;16.30;99.90;;;-141.84;72.54;19133.06;5092259;28;20219;-78
2022/10/15 08:10:43;;;;;;;5.15;2.92;;;16.30;99.90;;;-141.84;71.43;19155.41;5091778;28;20208;-79
2022/10/15 08:13:11;;;;;;;2.90;2.58;;;16.40;99.90;;;-141.84;72.48;19129.00;5091257;28;20228;-78
2022/10/15 08:15:39;;;;;;;3.00;2.70;;;16.40;99.90;;;-141.84;72.93;19118.84;5094036;28;20731;-82
2022/10/15 08:18:10;;;;;;;4.05;2.53;;;16.40;99.90;;;-141.84;73.34;19090.38;5095045;28;20224;-77
2022/10/15 08:20:38;;;;;;;3.13;2.60;;;16.40;99.90;;;-141.84;73.36;19084.28;5093837;27;20223;-76
2022/10/15 08:23:14;;;;;;;3.30;3.00;;;16.40;99.90;;;-141.84;73.33;19082.25;5110118;28;20202;-72
2022/10/15 08:25:42;;;;;;;5.70;2.95;;;16.30;99.90;;;-141.84;73.08;19053.81;5094019;28;20215;-73
2022/10/15 08:28:10;;;;;;;3.17;2.50;;;16.30;99.90;;;-141.84;73.54;19039.59;5093430;28;20224;-72
2022/10/15 08:30:38;;;;;;;3.55;3.00;;;16.20;99.90;;;-141.84;73.81;19047.72;5093952;28;20219;-78
2022/10/15 08:33:06;;;;;;;2.90;2.53;;;16.20;99.90;;;-141.84;73.94;19057.88;5093604;28;20238;-76
2022/10/15 08:35:38;;;;;;;2.80;2.45;;;16.10;99.90;;;-141.84;73.79;19092.41;5093427;28;20582;-79
2022/10/15 08:38:06;;;;;;;2.70;2.50;;;16.30;99.90;;;-141.84;72.92;19139.16;5093781;28;20184;-76
2022/10/15 08:40:34;;;;;;;4.18;2.72;;;16.60;99.90;;;-141.84;70.73;19240.75;5093936;28;20199;-76
2022/10/15 08:43:03;;;;;;;2.72;2.53;;;16.80;99.90;;;-141.84;69.14;19317.97;5093121;28;20223;-78
2022/10/15 08:45:38;;;;;;;2.83;2.50;;;17.00;99.90;;;-141.84;68.24;19458.19;5093548;28;20723;-79
2022/10/15 08:48:14;;;;;;;3.72;2.70;;;17.30;99.90;;;-141.84;67.22;19576.06;5093211;28;20710;-77
2022/10/15 08:50:52;;;;;;;3.30;3.00;;;17.60;99.90;;;-141.84;66.27;19677.66;5092608;28;20220;-78
2022/10/15 08:53:24;;;;;;;3.40;2.50;;;17.90;99.90;;;-141.84;64.94;19860.59;5093747;28;20549;-79
2022/10/15 08:55:58;;;;;;;2.53;2.22;;;18.20;99.90;;;-141.84;63.25;20094.31;5113775;28;20607;-76
2022/10/15 08:58:38;;;;;;;2.58;2.38;;;18.60;99.90;;;-141.84;60.65;20452.06;5114122;28;20199;-75
2022/10/15 09:01:24;;;;;;;2.58;2.38;;;18.80;99.90;;;-141.84;61.56;20350.41;5128711;28;20632;-76
2022/10/15 09:04:08;;;;;;;2.28;2.13;;;18.90;99.90;;;-141.84;62.60;20287.41;5137742;28;20249;-79
2022/10/15 09:06:40;;;;;;;2.53;2.28;;;18.70;99.90;;;-141.84;61.94;20301.63;5129508;28;20231;-76
2022/10/15 09:09:21;;;;;;;3.60;2.60;;;18.60;99.90;;;-141.84;63.64;20092.28;5115350;28;20219;-78
2022/10/15 09:12:03;;;;;;;2.60;2.40;;;18.40;99.90;;;-141.84;63.53;20102.44;5114198;28;20766;-76
2022/10/15 09:14:37;;;;;;;2.58;2.17;;;18.30;99.90;;;-141.84;64.32;20049.59;5113647;28;20227;-76
2022/10/15 09:17:17;;;;;;;2.50;2.30;;;18.20;99.90;;;-141.84;63.81;20130.91;5113989;28;20527;-81
2022/10/15 09:19:51;;;;;;;1.85;1.70;;;18.10;99.90;;;-141.84;63.87;20098.38;5114093;28;20213;-77
2022/10/15 09:22:26;;;;;;;2.55;1.90;;;18.10;99.90;;;-141.84;63.80;20069.94;5113039;28;20219;-77
2022/10/15 09:24:55;;;;;;;3.50;2.10;;;18.10;99.90;;;-141.84;63.20;20139.03;5112658;28;20226;-76
2022/10/15 09:27:33;;;;;;;2.10;1.88;;;18.10;99.90;;;-141.84;63.96;20159.34;5113004;28;20641;-77
2022/10/15 09:30:12;;;;;;;2.10;1.90;;;18.20;99.90;;;-141.84;63.91;20112.59;5112908;28;20241;-76
2022/10/15 09:32:48;;;;;;;2.28;1.90;;;18.20;99.90;;;-141.84;64.32;20069.94;5113023;28;20226;-76
2022/10/15 09:35:29;;;;;;;2.28;1.60;;;18.20;99.90;;;-141.84;63.46;20167.47;5112503;28;20229;-77
2022/10/15 09:38:21;;;;;;;2.95;2.65;;;18.20;99.90;;;-141.84;63.10;20202.03;5112670;28;20179;-77
2022/10/15 09:41:14;;;;;;;10.40;8.93;;;18.20;99.90;;;-141.84;64.67;20057.72;5113430;28;20188;-77
2022/10/15 09:43:49;;;;;;;3.88;3.30;;;18.20;99.90;;;-141.84;64.46;20037.41;5112997;28;20222;-77
2022/10/15 09:46:18;;;;;;;2.65;2.38;;;18.20;99.90;;;-141.84;64.26;20086.19;5112931;27;20222;-77
2022/10/15 09:48:53;;;;;;;2.38;2.17;;;18.20;99.90;;;-141.84;63.50;20139.03;5112947;28;20223;-76
2022/10/15 09:51:31;;;;;;;2.63;2.00;;;18.40;99.90;;;-141.84;62.45;20269.13;5113317;28;20226;-77
2022/10/15 09:54:10;;;;;;;1.95;1.70;;;18.50;99.90;;;-141.84;61.67;20340.25;5113060;28;20234;-76
2022/10/15 09:56:46;;;;;;;1.70;1.60;;;18.60;99.90;;;-141.84;61.71;20382.94;5112969;28;20600;-78
2022/10/15 09:59:17;;;;;;;4.38;3.47;;;18.70;99.90;;;-141.84;61.48;20387.00;5112896;28;20375;-75
2022/10/15 10:02:00;;;;;;;1.35;1.25;;;18.70;99.90;;;-141.84;60.80;20450.03;5113842;28;20187;-76
2022/10/15 10:04:30;;;;;;;2.03;1.55;;;18.80;99.90;;;-141.84;61.02;20474.41;5112475;28;20199;-78
2022/10/15 10:07:06;;;;;;;1.75;1.10;;;18.70;99.90;;;-141.84;60.82;20458.16;5117737;28;20227;-81
2022/10/15 10:09:48;;;;;;;1.42;1.33;;;18.70;99.90;;;-141.84;61.25;20443.91;5117629;28;20234;-76
2022/10/15 10:12:22;;;;;;;1.40;1.30;;;18.70;99.90;;;-141.84;61.66;20393.09;5112699;28;20223;-77
2022/10/15 10:14:57;;;;;;;1.67;1.40;;;18.60;99.90;;;-141.84;62.56;20334.16;5107086;28;20222;-70
2022/10/15 10:17:27;;;;;;;2.10;0.98;;;18.60;99.90;;;-141.84;60.76;20476.44;5111782;28;20724;-70
2022/10/15 10:20:16;;;;;;;1.27;1.10;;;18.70;99.90;;;-141.84;60.38;20545.56;5111290;28;20627;-69
2022/10/15 10:22:47;;;;;;;1.25;1.15;;;18.80;99.90;;;-141.84;59.74;20559.78;5112801;28;20187;-74
2022/10/15 10:25:41;;;;;;;1.23;1.10;;;18.90;99.90;;;-141.84;60.58;20537.44;5111799;28;20702;-73